sensor_id;sensor_type;location;lat;lon;timestamp;P1;durP1;ratioP1;P2;durP2;ratioP2
46897;SDS011;32646;50.958;6.258;2023-11-19T00:01:20;0.00;;;0.00;;
46897;SDS011;32646;50.958;6.258;2023-11-19T00:03:47;0.00;;;0.00;;
46897;SDS011;32646;50.958;6.258;2023-11-19T00:06:16;0.00;;;0.00;;
46897;SDS011;32646;50.958;6.258;2023-11-19T00:08:42;0.03;;;0.03;;
46897;SDS011;32646;50.958;6.258;2023-11-19T00:11:09;0.00;;;0.00;;
46897;SDS011;32646;50.958;6.258;2023-11-19T00:13:36;0.00;;;0.00;;
46897;SDS011;32646;50.958;6.258;2023-11-19T00:16:02;0.05;;;0.05;;
46897;SDS011;32646;50.958;6.258;2023-11-19T00:18:29;0.10;;;0.10;;
46897;SDS011;32646;50.958;6.258;2023-11-19T00:20:56;0.00;;;0.00;;
46897;SDS011;32646;50.958;6.258;2023-11-19T00:23:22;0.00;;;0.00;;
46897;SDS011;32646;50.958;6.258;2023-11-19T00:25:49;0.00;;;0.00;;
46897;SDS011;32646;50.958;6.258;2023-11-19T00:28:16;0.08;;;0.08;;
46897;SDS011;32646;50.958;6.258;2023-11-19T00:30:42;0.20;;;0.10;;
46897;SDS011;32646;50.958;6.258;2023-11-19T00:33:09;0.00;;;0.00;;
46897;SDS011;32646;50.958;6.258;2023-11-19T00:35:36;0.10;;;0.10;;
46897;SDS011;32646;50.958;6.258;2023-11-19T00:38:02;0.05;;;0.05;;
46897;SDS011;32646;50.958;6.258;2023-11-19T00:40:29;0.03;;;0.03;;
46897;SDS011;32646;50.958;6.258;2023-11-19T00:42:56;0.05;;;0.05;;
46897;SDS011;32646;50.958;6.258;2023-11-19T00:45:24;0.00;;;0.00;;
46897;SDS011;32646;50.958;6.258;2023-11-19T00:47:51;0.00;;;0.00;;
46897;SDS011;32646;50.958;6.258;2023-11-19T00:50:17;0.00;;;0.00;;
46897;SDS011;32646;50.958;6.258;2023-11-19T00:52:44;0.00;;;0.00;;
46897;SDS011;32646;50.958;6.258;2023-11-19T00:55:11;0.00;;;0.00;;
46897;SDS011;32646;50.958;6.258;2023-11-19T00:57:37;0.03;;;0.03;;
46897;SDS011;32646;50.958;6.258;2023-11-19T01:00:07;0.00;;;0.00;;
46897;SDS011;32646;50.958;6.258;2023-11-19T01:02:34;0.00;;;0.00;;
46897;SDS011;32646;50.958;6.258;2023-11-19T01:05:01;0.20;;;0.10;;
46897;SDS011;32646;50.958;6.258;2023-11-19T01:07:27;0.32;;;0.32;;
46897;SDS011;32646;50.958;6.258;2023-11-19T01:09:54;0.05;;;0.05;;
46897;SDS011;32646;50.958;6.258;2023-11-19T01:12:21;0.00;;;0.00;;
46897;SDS011;32646;50.958;6.258;2023-11-19T01:14:47;0.00;;;0.00;;
46897;SDS011;32646;50.958;6.258;2023-11-19T01:17:14;0.00;;;0.00;;
46897;SDS011;32646;50.958;6.258;2023-11-19T01:19:40;0.22;;;0.22;;
46897;SDS011;32646;50.958;6.258;2023-11-19T01:22:08;0.03;;;0.03;;
46897;SDS011;32646;50.958;6.258;2023-11-19T01:24:34;0.10;;;0.10;;
46897;SDS011;32646;50.958;6.258;2023-11-19T01:27:01;0.00;;;0.00;;
46897;SDS011;32646;50.958;6.258;2023-11-19T01:29:27;0.20;;;0.17;;
46897;SDS011;32646;50.958;6.258;2023-11-19T01:31:54;0.00;;;0.00;;
46897;SDS011;32646;50.958;6.258;2023-11-19T01:34:21;0.10;;;0.10;;
46897;SDS011;32646;50.958;6.258;2023-11-19T01:36:48;0.00;;;0.00;;
46897;SDS011;32646;50.958;6.258;2023-11-19T01:39:14;0.08;;;0.08;;
46897;SDS011;32646;50.958;6.258;2023-11-19T01:41:41;0.00;;;0.00;;
46897;SDS011;32646;50.958;6.258;2023-11-19T01:44:08;0.03;;;0.03;;
46897;SDS011;32646;50.958;6.258;2023-11-19T01:46:35;0.30;;;0.30;;
46897;SDS011;32646;50.958;6.258;2023-11-19T01:49:02;0.03;;;0.03;;
46897;SDS011;32646;50.958;6.258;2023-11-19T01:51:30;0.10;;;0.10;;
46897;SDS011;32646;50.958;6.258;2023-11-19T01:53:57;0.00;;;0.00;;
46897;SDS011;32646;50.958;6.258;2023-11-19T01:56:25;0.08;;;0.08;;
46897;SDS011;32646;50.958;6.258;2023-11-19T01:58:53;0.00;;;0.00;;
46897;SDS011;32646;50.958;6.258;2023-11-19T02:01:21;0.00;;;0.00;;
46897;SDS011;32646;50.958;6.258;2023-11-19T02:03:48;12.73;;;1.40;;
46897;SDS011;32646;50.958;6.258;2023-11-19T02:06:15;0.10;;;0.10;;
46897;SDS011;32646;50.958;6.258;2023-11-19T02:08:42;0.00;;;0.00;;
46897;SDS011;32646;50.958;6.258;2023-11-19T02:11:09;0.10;;;0.10;;
46897;SDS011;32646;50.958;6.258;2023-11-19T02:13:37;0.00;;;0.00;;
46897;SDS011;32646;50.958;6.258;2023-11-19T02:16:04;0.05;;;0.05;;
46897;SDS011;32646;50.958;6.258;2023-11-19T02:18:31;0.00;;;0.00;;
46897;SDS011;32646;50.958;6.258;2023-11-19T02:20:58;0.00;;;0.00;;
46897;SDS011;32646;50.958;6.258;2023-11-19T02:23:28;0.55;;;0.32;;
46897;SDS011;32646;50.958;6.258;2023-11-19T02:26:03;0.08;;;0.08;;
46897;SDS011;32646;50.958;6.258;2023-11-19T02:28:35;0.00;;;0.00;;
46897;SDS011;32646;50.958;6.258;2023-11-19T02:31:02;0.00;;;0.00;;
46897;SDS011;32646;50.958;6.258;2023-11-19T02:33:29;0.13;;;0.10;;
46897;SDS011;32646;50.958;6.258;2023-11-19T02:35:56;0.00;;;0.00;;
46897;SDS011;32646;50.958;6.258;2023-11-19T02:38:23;0.00;;;0.00;;
46897;SDS011;32646;50.958;6.258;2023-11-19T02:40:49;0.00;;;0.00;;
46897;SDS011;32646;50.958;6.258;2023-11-19T02:43:16;0.10;;;0.10;;
46897;SDS011;32646;50.958;6.258;2023-11-19T02:45:43;0.00;;;0.00;;
46897;SDS011;32646;50.958;6.258;2023-11-19T02:48:09;0.10;;;0.10;;
46897;SDS011;32646;50.958;6.258;2023-11-19T02:50:36;0.00;;;0.00;;
46897;SDS011;32646;50.958;6.258;2023-11-19T02:53:02;0.75;;;0.75;;
46897;SDS011;32646;50.958;6.258;2023-11-19T02:55:29;0.65;;;0.65;;
46897;SDS011;32646;50.958;6.258;2023-11-19T02:57:56;2.42;;;1.65;;
46897;SDS011;32646;50.958;6.258;2023-11-19T03:00:23;2.72;;;1.10;;
46897;SDS011;32646;50.958;6.258;2023-11-19T03:02:50;0.10;;;0.10;;
46897;SDS011;32646;50.958;6.258;2023-11-19T03:05:17;0.00;;;0.00;;
46897;SDS011;32646;50.958;6.258;2023-11-19T03:07:43;0.10;;;0.10;;
46897;SDS011;32646;50.958;6.258;2023-11-19T03:10:10;0.00;;;0.00;;
46897;SDS011;32646;50.958;6.258;2023-11-19T03:12:37;0.05;;;0.05;;
46897;SDS011;32646;50.958;6.258;2023-11-19T03:15:04;0.10;;;0.10;;
46897;SDS011;32646;50.958;6.258;2023-11-19T03:17:31;0.00;;;0.00;;
46897;SDS011;32646;50.958;6.258;2023-11-19T03:19:58;0.00;;;0.00;;
46897;SDS011;32646;50.958;6.258;2023-11-19T03:22:25;0.88;;;0.35;;
46897;SDS011;32646;50.958;6.258;2023-11-19T03:24:51;0.00;;;0.00;;
46897;SDS011;32646;50.958;6.258;2023-11-19T03:27:18;0.00;;;0.00;;
46897;SDS011;32646;50.958;6.258;2023-11-19T03:29:45;0.00;;;0.00;;
46897;SDS011;32646;50.958;6.258;2023-11-19T03:32:11;0.10;;;0.10;;
46897;SDS011;32646;50.958;6.258;2023-11-19T03:34:38;0.10;;;0.10;;
46897;SDS011;32646;50.958;6.258;2023-11-19T03:37:06;0.03;;;0.03;;
46897;SDS011;32646;50.958;6.258;2023-11-19T03:39:32;0.00;;;0.00;;
46897;SDS011;32646;50.958;6.258;2023-11-19T03:41:59;0.00;;;0.00;;
46897;SDS011;32646;50.958;6.258;2023-11-19T03:44:26;0.00;;;0.00;;
46897;SDS011;32646;50.958;6.258;2023-11-19T03:46:53;0.15;;;0.15;;
46897;SDS011;32646;50.958;6.258;2023-11-19T03:49:20;0.03;;;0.03;;
46897;SDS011;32646;50.958;6.258;2023-11-19T03:51:46;0.28;;;0.28;;
46897;SDS011;32646;50.958;6.258;2023-11-19T03:54:13;0.03;;;0.03;;
46897;SDS011;32646;50.958;6.258;2023-11-19T03:56:39;0.10;;;0.10;;
46897;SDS011;32646;50.958;6.258;2023-11-19T03:59:06;0.00;;;0.00;;
46897;SDS011;32646;50.958;6.258;2023-11-19T04:01:33;0.00;;;0.00;;
46897;SDS011;32646;50.958;6.258;2023-11-19T04:03:59;0.03;;;0.03;;
46897;SDS011;32646;50.958;6.258;2023-11-19T04:06:26;0.03;;;0.03;;
46897;SDS011;32646;50.958;6.258;2023-11-19T04:08:53;0.08;;;0.08;;
46897;SDS011;32646;50.958;6.258;2023-11-19T04:11:19;0.03;;;0.03;;
46897;SDS011;32646;50.958;6.258;2023-11-19T04:13:46;0.05;;;0.05;;
46897;SDS011;32646;50.958;6.258;2023-11-19T04:16:12;0.30;;;0.22;;
46897;SDS011;32646;50.958;6.258;2023-11-19T04:18:40;0.00;;;0.00;;
46897;SDS011;32646;50.958;6.258;2023-11-19T04:21:07;0.30;;;0.20;;
46897;SDS011;32646;50.958;6.258;2023-11-19T04:23:34;0.03;;;0.03;;
46897;SDS011;32646;50.958;6.258;2023-11-19T04:26:03;0.03;;;0.03;;
46897;SDS011;32646;50.958;6.258;2023-11-19T04:28:33;0.60;;;0.45;;
46897;SDS011;32646;50.958;6.258;2023-11-19T04:30:59;0.40;;;0.40;;
46897;SDS011;32646;50.958;6.258;2023-11-19T04:33:26;0.22;;;0.20;;
46897;SDS011;32646;50.958;6.258;2023-11-19T04:35:53;0.00;;;0.00;;
46897;SDS011;32646;50.958;6.258;2023-11-19T04:38:19;0.00;;;0.00;;
46897;SDS011;32646;50.958;6.258;2023-11-19T04:40:46;0.10;;;0.10;;
46897;SDS011;32646;50.958;6.258;2023-11-19T04:43:13;0.20;;;0.20;;
46897;SDS011;32646;50.958;6.258;2023-11-19T04:45:39;0.10;;;0.10;;
46897;SDS011;32646;50.958;6.258;2023-11-19T04:48:06;6.68;;;0.38;;
46897;SDS011;32646;50.958;6.258;2023-11-19T04:50:33;0.03;;;0.03;;
46897;SDS011;32646;50.958;6.258;2023-11-19T04:52:59;0.47;;;0.47;;
46897;SDS011;32646;50.958;6.258;2023-11-19T04:55:26;0.03;;;0.03;;
46897;SDS011;32646;50.958;6.258;2023-11-19T04:57:53;1.77;;;1.05;;
46897;SDS011;32646;50.958;6.258;2023-11-19T05:00:20;0.03;;;0.03;;
46897;SDS011;32646;50.958;6.258;2023-11-19T05:02:49;0.20;;;0.20;;
46897;SDS011;32646;50.958;6.258;2023-11-19T05:05:16;0.00;;;0.00;;
46897;SDS011;32646;50.958;6.258;2023-11-19T05:07:42;0.08;;;0.08;;
46897;SDS011;32646;50.958;6.258;2023-11-19T05:10:09;0.10;;;0.10;;
46897;SDS011;32646;50.958;6.258;2023-11-19T05:12:36;0.03;;;0.03;;
46897;SDS011;32646;50.958;6.258;2023-11-19T05:15:03;0.10;;;0.10;;
46897;SDS011;32646;50.958;6.258;2023-11-19T05:17:30;0.03;;;0.03;;
46897;SDS011;32646;50.958;6.258;2023-11-19T05:19:57;0.50;;;0.50;;
46897;SDS011;32646;50.958;6.258;2023-11-19T05:22:23;0.00;;;0.00;;
46897;SDS011;32646;50.958;6.258;2023-11-19T05:24:50;0.00;;;0.00;;
46897;SDS011;32646;50.958;6.258;2023-11-19T05:27:16;0.65;;;0.65;;
46897;SDS011;32646;50.958;6.258;2023-11-19T05:29:43;0.20;;;0.20;;
46897;SDS011;32646;50.958;6.258;2023-11-19T05:32:10;0.00;;;0.00;;
46897;SDS011;32646;50.958;6.258;2023-11-19T05:34:36;0.03;;;0.03;;
46897;SDS011;32646;50.958;6.258;2023-11-19T05:37:17;0.00;;;0.00;;
46897;SDS011;32646;50.958;6.258;2023-11-19T05:39:44;0.00;;;0.00;;
46897;SDS011;32646;50.958;6.258;2023-11-19T05:42:11;0.00;;;0.00;;
46897;SDS011;32646;50.958;6.258;2023-11-19T05:44:38;0.00;;;0.00;;
46897;SDS011;32646;50.958;6.258;2023-11-19T05:47:07;0.00;;;0.00;;
46897;SDS011;32646;50.958;6.258;2023-11-19T05:49:33;0.10;;;0.10;;
46897;SDS011;32646;50.958;6.258;2023-11-19T05:52:00;0.00;;;0.00;;
46897;SDS011;32646;50.958;6.258;2023-11-19T05:54:27;0.00;;;0.00;;
46897;SDS011;32646;50.958;6.258;2023-11-19T05:56:56;0.25;;;0.25;;
46897;SDS011;32646;50.958;6.258;2023-11-19T05:59:22;0.00;;;0.00;;
46897;SDS011;32646;50.958;6.258;2023-11-19T06:01:49;0.00;;;0.00;;
46897;SDS011;32646;50.958;6.258;2023-11-19T06:04:15;0.10;;;0.10;;
46897;SDS011;32646;50.958;6.258;2023-11-19T06:06:42;0.03;;;0.03;;
46897;SDS011;32646;50.958;6.258;2023-11-19T06:09:09;0.00;;;0.00;;
46897;SDS011;32646;50.958;6.258;2023-11-19T06:11:38;0.20;;;0.17;;
46897;SDS011;32646;50.958;6.258;2023-11-19T06:14:05;0.03;;;0.03;;
46897;SDS011;32646;50.958;6.258;2023-11-19T06:16:32;0.00;;;0.00;;
46897;SDS011;32646;50.958;6.258;2023-11-19T06:18:59;0.08;;;0.08;;
46897;SDS011;32646;50.958;6.258;2023-11-19T06:21:26;0.00;;;0.00;;
46897;SDS011;32646;50.958;6.258;2023-11-19T06:23:52;0.03;;;0.03;;
46897;SDS011;32646;50.958;6.258;2023-11-19T06:26:19;0.00;;;0.00;;
46897;SDS011;32646;50.958;6.258;2023-11-19T06:28:46;0.00;;;0.00;;
46897;SDS011;32646;50.958;6.258;2023-11-19T06:31:13;0.00;;;0.00;;
46897;SDS011;32646;50.958;6.258;2023-11-19T06:33:39;1.75;;;1.65;;
46897;SDS011;32646;50.958;6.258;2023-11-19T06:36:06;0.10;;;0.10;;
46897;SDS011;32646;50.958;6.258;2023-11-19T06:38:33;0.65;;;0.65;;
46897;SDS011;32646;50.958;6.258;2023-11-19T06:40:59;0.03;;;0.03;;
46897;SDS011;32646;50.958;6.258;2023-11-19T06:43:26;0.00;;;0.00;;
46897;SDS011;32646;50.958;6.258;2023-11-19T06:46:13;0.00;;;0.00;;
46897;SDS011;32646;50.958;6.258;2023-11-19T06:48:41;0.80;;;0.80;;
46897;SDS011;32646;50.958;6.258;2023-11-19T06:51:07;0.38;;;0.38;;
46897;SDS011;32646;50.958;6.258;2023-11-19T06:53:34;1.20;;;1.15;;
46897;SDS011;32646;50.958;6.258;2023-11-19T06:56:01;0.03;;;0.03;;
46897;SDS011;32646;50.958;6.258;2023-11-19T06:58:28;0.03;;;0.03;;
46897;SDS011;32646;50.958;6.258;2023-11-19T07:00:54;0.22;;;0.20;;
46897;SDS011;32646;50.958;6.258;2023-11-19T07:03:21;0.73;;;0.73;;
46897;SDS011;32646;50.958;6.258;2023-11-19T07:05:48;2.03;;;1.75;;
46897;SDS011;32646;50.958;6.258;2023-11-19T07:08:14;0.00;;;0.00;;
46897;SDS011;32646;50.958;6.258;2023-11-19T07:10:41;0.00;;;0.00;;
46897;SDS011;32646;50.958;6.258;2023-11-19T07:13:08;0.10;;;0.10;;
46897;SDS011;32646;50.958;6.258;2023-11-19T07:15:34;0.10;;;0.10;;
46897;SDS011;32646;50.958;6.258;2023-11-19T07:18:01;0.00;;;0.00;;
46897;SDS011;32646;50.958;6.258;2023-11-19T07:20:28;0.00;;;0.00;;
46897;SDS011;32646;50.958;6.258;2023-11-19T07:22:55;0.00;;;0.00;;
46897;SDS011;32646;50.958;6.258;2023-11-19T07:25:23;0.00;;;0.00;;
46897;SDS011;32646;50.958;6.258;2023-11-19T07:27:51;1.70;;;0.35;;
46897;SDS011;32646;50.958;6.258;2023-11-19T07:30:17;0.25;;;0.08;;
46897;SDS011;32646;50.958;6.258;2023-11-19T07:32:44;0.10;;;0.10;;
46897;SDS011;32646;50.958;6.258;2023-11-19T07:35:11;0.20;;;0.15;;
46897;SDS011;32646;50.958;6.258;2023-11-19T07:37:37;0.03;;;0.03;;
46897;SDS011;32646;50.958;6.258;2023-11-19T07:40:04;0.00;;;0.00;;
46897;SDS011;32646;50.958;6.258;2023-11-19T07:42:31;0.00;;;0.00;;
46897;SDS011;32646;50.958;6.258;2023-11-19T07:44:58;1.17;;;1.08;;
46897;SDS011;32646;50.958;6.258;2023-11-19T07:47:24;0.00;;;0.00;;
46897;SDS011;32646;50.958;6.258;2023-11-19T07:49:51;0.10;;;0.10;;
46897;SDS011;32646;50.958;6.258;2023-11-19T07:52:18;0.00;;;0.00;;
46897;SDS011;32646;50.958;6.258;2023-11-19T07:54:47;10.88;;;3.03;;
46897;SDS011;32646;50.958;6.258;2023-11-19T07:57:14;0.00;;;0.00;;
46897;SDS011;32646;50.958;6.258;2023-11-19T07:59:41;0.03;;;0.03;;
46897;SDS011;32646;50.958;6.258;2023-11-19T08:02:08;0.03;;;0.03;;
46897;SDS011;32646;50.958;6.258;2023-11-19T08:04:34;0.00;;;0.00;;
46897;SDS011;32646;50.958;6.258;2023-11-19T08:07:01;0.00;;;0.00;;
46897;SDS011;32646;50.958;6.258;2023-11-19T08:09:28;0.00;;;0.00;;
46897;SDS011;32646;50.958;6.258;2023-11-19T08:11:54;0.00;;;0.00;;
46897;SDS011;32646;50.958;6.258;2023-11-19T08:14:21;1.75;;;0.60;;
46897;SDS011;32646;50.958;6.258;2023-11-19T08:16:48;0.00;;;0.00;;
46897;SDS011;32646;50.958;6.258;2023-11-19T08:19:14;0.08;;;0.08;;
46897;SDS011;32646;50.958;6.258;2023-11-19T08:21:41;0.00;;;0.00;;
46897;SDS011;32646;50.958;6.258;2023-11-19T08:24:08;0.00;;;0.00;;
46897;SDS011;32646;50.958;6.258;2023-11-19T08:26:34;0.00;;;0.00;;
46897;SDS011;32646;50.958;6.258;2023-11-19T08:29:01;0.00;;;0.00;;
46897;SDS011;32646;50.958;6.258;2023-11-19T08:31:28;3.58;;;2.83;;
46897;SDS011;32646;50.958;6.258;2023-11-19T08:33:54;1.17;;;0.82;;
46897;SDS011;32646;50.958;6.258;2023-11-19T08:36:21;0.10;;;0.10;;
46897;SDS011;32646;50.958;6.258;2023-11-19T08:38:47;0.10;;;0.10;;
46897;SDS011;32646;50.958;6.258;2023-11-19T08:41:15;0.10;;;0.10;;
46897;SDS011;32646;50.958;6.258;2023-11-19T08:43:42;0.00;;;0.00;;
46897;SDS011;32646;50.958;6.258;2023-11-19T08:46:09;0.10;;;0.10;;
46897;SDS011;32646;50.958;6.258;2023-11-19T08:48:39;0.15;;;0.15;;
46897;SDS011;32646;50.958;6.258;2023-11-19T08:51:06;0.30;;;0.20;;
46897;SDS011;32646;50.958;6.258;2023-11-19T08:53:33;0.00;;;0.00;;
46897;SDS011;32646;50.958;6.258;2023-11-19T08:56:00;0.55;;;0.55;;
46897;SDS011;32646;50.958;6.258;2023-11-19T08:58:28;0.52;;;0.08;;
46897;SDS011;32646;50.958;6.258;2023-11-19T09:00:55;6.75;;;1.70;;
46897;SDS011;32646;50.958;6.258;2023-11-19T09:03:21;16.65;;;2.75;;
46897;SDS011;32646;50.958;6.258;2023-11-19T09:05:48;6.38;;;1.42;;
46897;SDS011;32646;50.958;6.258;2023-11-19T09:08:15;11.77;;;1.85;;
46897;SDS011;32646;50.958;6.258;2023-11-19T09:10:42;9.60;;;1.95;;
46897;SDS011;32646;50.958;6.258;2023-11-19T09:13:08;12.98;;;1.48;;
46897;SDS011;32646;50.958;6.258;2023-11-19T09:15:35;7.65;;;1.98;;
46897;SDS011;32646;50.958;6.258;2023-11-19T09:18:02;8.60;;;1.98;;
46897;SDS011;32646;50.958;6.258;2023-11-19T09:20:29;17.95;;;2.33;;
46897;SDS011;32646;50.958;6.258;2023-11-19T09:22:56;16.02;;;2.80;;
46897;SDS011;32646;50.958;6.258;2023-11-19T09:25:23;9.68;;;1.98;;
46897;SDS011;32646;50.958;6.258;2023-11-19T09:27:49;8.18;;;2.00;;
46897;SDS011;32646;50.958;6.258;2023-11-19T09:30:16;13.35;;;2.20;;
46897;SDS011;32646;50.958;6.258;2023-11-19T09:32:43;12.82;;;3.28;;
46897;SDS011;32646;50.958;6.258;2023-11-19T09:35:09;8.10;;;2.13;;
46897;SDS011;32646;50.958;6.258;2023-11-19T09:37:36;10.80;;;2.08;;
46897;SDS011;32646;50.958;6.258;2023-11-19T09:40:03;11.35;;;2.20;;
46897;SDS011;32646;50.958;6.258;2023-11-19T09:42:30;9.15;;;1.40;;
46897;SDS011;32646;50.958;6.258;2023-11-19T09:45:05;8.50;;;2.00;;
46897;SDS011;32646;50.958;6.258;2023-11-19T09:47:39;15.70;;;2.67;;
46897;SDS011;32646;50.958;6.258;2023-11-19T09:50:06;11.63;;;1.67;;
46897;SDS011;32646;50.958;6.258;2023-11-19T09:52:33;10.30;;;1.70;;
46897;SDS011;32646;50.958;6.258;2023-11-19T09:55:00;10.82;;;2.45;;
46897;SDS011;32646;50.958;6.258;2023-11-19T09:57:26;14.20;;;2.03;;
46897;SDS011;32646;50.958;6.258;2023-11-19T09:59:57;11.07;;;1.83;;
46897;SDS011;32646;50.958;6.258;2023-11-19T10:02:24;9.18;;;1.58;;
46897;SDS011;32646;50.958;6.258;2023-11-19T10:04:56;7.57;;;1.88;;
46897;SDS011;32646;50.958;6.258;2023-11-19T10:07:24;11.82;;;1.45;;
46897;SDS011;32646;50.958;6.258;2023-11-19T10:09:52;9.18;;;2.33;;
46897;SDS011;32646;50.958;6.258;2023-11-19T10:12:19;8.63;;;1.77;;
46897;SDS011;32646;50.958;6.258;2023-11-19T10:14:45;14.43;;;2.10;;
46897;SDS011;32646;50.958;6.258;2023-11-19T10:17:14;8.15;;;1.42;;
46897;SDS011;32646;50.958;6.258;2023-11-19T10:19:40;9.13;;;2.22;;
46897;SDS011;32646;50.958;6.258;2023-11-19T10:22:07;10.73;;;1.80;;
46897;SDS011;32646;50.958;6.258;2023-11-19T10:24:34;9.57;;;2.05;;
46897;SDS011;32646;50.958;6.258;2023-11-19T10:27:06;7.38;;;1.60;;
46897;SDS011;32646;50.958;6.258;2023-11-19T10:29:36;11.77;;;1.45;;
46897;SDS011;32646;50.958;6.258;2023-11-19T10:32:03;9.90;;;2.30;;
46897;SDS011;32646;50.958;6.258;2023-11-19T10:34:50;17.25;;;2.95;;
46897;SDS011;32646;50.958;6.258;2023-11-19T10:37:50;8.95;;;1.45;;
46897;SDS011;32646;50.958;6.258;2023-11-19T10:40:09;7.60;;;2.08;;
46897;SDS011;32646;50.958;6.258;2023-11-19T10:42:37;6.63;;;1.38;;
46897;SDS011;32646;50.958;6.258;2023-11-19T10:45:03;7.82;;;1.42;;
46897;SDS011;32646;50.958;6.258;2023-11-19T10:47:30;12.07;;;2.15;;
46897;SDS011;32646;50.958;6.258;2023-11-19T10:50:02;10.00;;;1.83;;
46897;SDS011;32646;50.958;6.258;2023-11-19T10:52:28;13.93;;;2.80;;
46897;SDS011;32646;50.958;6.258;2023-11-19T10:54:56;10.60;;;2.28;;
46897;SDS011;32646;50.958;6.258;2023-11-19T10:57:26;7.80;;;2.53;;
46897;SDS011;32646;50.958;6.258;2023-11-19T11:00:00;12.63;;;2.28;;
46897;SDS011;32646;50.958;6.258;2023-11-19T11:02:28;10.50;;;1.88;;
46897;SDS011;32646;50.958;6.258;2023-11-19T11:05:01;7.32;;;1.35;;
46897;SDS011;32646;50.958;6.258;2023-11-19T11:07:28;8.60;;;1.48;;
46897;SDS011;32646;50.958;6.258;2023-11-19T11:10:06;10.80;;;1.88;;
46897;SDS011;32646;50.958;6.258;2023-11-19T11:12:34;8.10;;;1.27;;
46897;SDS011;32646;50.958;6.258;2023-11-19T11:15:03;7.30;;;1.10;;
46897;SDS011;32646;50.958;6.258;2023-11-19T11:17:32;6.78;;;1.45;;
46897;SDS011;32646;50.958;6.258;2023-11-19T11:20:00;7.43;;;1.40;;
46897;SDS011;32646;50.958;6.258;2023-11-19T11:22:27;7.93;;;1.38;;
46897;SDS011;32646;50.958;6.258;2023-11-19T11:35:49;11.35;;;1.63;;
46897;SDS011;32646;50.958;6.258;2023-11-19T11:38:25;9.52;;;1.75;;
46897;SDS011;32646;50.958;6.258;2023-11-19T11:41:14;10.95;;;1.90;;
46897;SDS011;32646;50.958;6.258;2023-11-19T11:43:46;11.25;;;1.40;;
46897;SDS011;32646;50.958;6.258;2023-11-19T11:49:02;8.75;;;1.58;;
46897;SDS011;32646;50.958;6.258;2023-11-19T11:57:00;6.10;;;1.45;;
46897;SDS011;32646;50.958;6.258;2023-11-19T12:02:07;8.35;;;1.75;;
46897;SDS011;32646;50.958;6.258;2023-11-19T12:04:35;10.50;;;1.83;;
46897;SDS011;32646;50.958;6.258;2023-11-19T12:07:06;7.47;;;1.65;;
46897;SDS011;32646;50.958;6.258;2023-11-19T12:09:34;8.07;;;1.77;;
46897;SDS011;32646;50.958;6.258;2023-11-19T12:12:34;5.30;;;1.20;;
46897;SDS011;32646;50.958;6.258;2023-11-19T12:15:04;4.90;;;1.38;;
46897;SDS011;32646;50.958;6.258;2023-11-19T12:20:02;9.45;;;1.90;;
46897;SDS011;32646;50.958;6.258;2023-11-19T12:22:31;7.72;;;1.10;;
46897;SDS011;32646;50.958;6.258;2023-11-19T12:24:57;8.20;;;1.42;;
46897;SDS011;32646;50.958;6.258;2023-11-19T12:27:25;11.88;;;2.22;;
46897;SDS011;32646;50.958;6.258;2023-11-19T12:29:51;9.45;;;1.65;;
46897;SDS011;32646;50.958;6.258;2023-11-19T12:32:18;11.48;;;2.03;;
46897;SDS011;32646;50.958;6.258;2023-11-19T12:34:45;5.35;;;1.08;;
46897;SDS011;32646;50.958;6.258;2023-11-19T12:37:11;5.45;;;1.52;;
46897;SDS011;32646;50.958;6.258;2023-11-19T12:39:38;5.60;;;1.23;;
46897;SDS011;32646;50.958;6.258;2023-11-19T12:42:05;5.78;;;1.30;;
46897;SDS011;32646;50.958;6.258;2023-11-19T12:44:32;9.15;;;1.73;;
46897;SDS011;32646;50.958;6.258;2023-11-19T12:47:04;13.60;;;2.22;;
46897;SDS011;32646;50.958;6.258;2023-11-19T12:49:32;6.97;;;1.70;;
46897;SDS011;32646;50.958;6.258;2023-11-19T12:51:59;5.70;;;1.65;;
46897;SDS011;32646;50.958;6.258;2023-11-19T12:54:33;8.77;;;1.80;;
46897;SDS011;32646;50.958;6.258;2023-11-19T12:57:03;8.52;;;1.38;;
46897;SDS011;32646;50.958;6.258;2023-11-19T12:59:31;10.10;;;1.77;;
46897;SDS011;32646;50.958;6.258;2023-11-19T13:01:57;7.15;;;2.10;;
46897;SDS011;32646;50.958;6.258;2023-11-19T13:04:30;6.43;;;1.83;;
46897;SDS011;32646;50.958;6.258;2023-11-19T13:06:58;9.30;;;2.55;;
46897;SDS011;32646;50.958;6.258;2023-11-19T13:09:28;6.50;;;1.23;;
46897;SDS011;32646;50.958;6.258;2023-11-19T13:11:55;9.93;;;1.92;;
46897;SDS011;32646;50.958;6.258;2023-11-19T13:14:22;8.77;;;1.58;;
46897;SDS011;32646;50.958;6.258;2023-11-19T13:16:49;9.02;;;1.70;;
46897;SDS011;32646;50.958;6.258;2023-11-19T13:19:16;7.13;;;1.77;;
46897;SDS011;32646;50.958;6.258;2023-11-19T13:21:42;9.15;;;1.40;;
46897;SDS011;32646;50.958;6.258;2023-11-19T13:24:09;9.98;;;1.65;;
46897;SDS011;32646;50.958;6.258;2023-11-19T13:26:36;4.32;;;1.05;;
46897;SDS011;32646;50.958;6.258;2023-11-19T13:29:03;7.53;;;1.88;;
46897;SDS011;32646;50.958;6.258;2023-11-19T13:31:29;9.55;;;1.70;;
46897;SDS011;32646;50.958;6.258;2023-11-19T13:33:56;11.90;;;1.92;;
46897;SDS011;32646;50.958;6.258;2023-11-19T13:36:23;11.95;;;1.95;;
46897;SDS011;32646;50.958;6.258;2023-11-19T13:38:50;8.48;;;1.50;;
46897;SDS011;32646;50.958;6.258;2023-11-19T13:41:17;6.40;;;1.35;;
46897;SDS011;32646;50.958;6.258;2023-11-19T13:43:43;6.80;;;1.60;;
46897;SDS011;32646;50.958;6.258;2023-11-19T13:46:10;7.57;;;1.23;;
46897;SDS011;32646;50.958;6.258;2023-11-19T13:48:37;4.93;;;1.50;;
46897;SDS011;32646;50.958;6.258;2023-11-19T13:51:04;10.73;;;1.75;;
46897;SDS011;32646;50.958;6.258;2023-11-19T13:53:31;7.18;;;1.90;;
46897;SDS011;32646;50.958;6.258;2023-11-19T13:56:16;6.20;;;1.63;;
46897;SDS011;32646;50.958;6.258;2023-11-19T13:58:43;7.88;;;1.33;;
46897;SDS011;32646;50.958;6.258;2023-11-19T14:01:09;6.93;;;1.92;;
46897;SDS011;32646;50.958;6.258;2023-11-19T14:03:36;6.65;;;1.95;;
46897;SDS011;32646;50.958;6.258;2023-11-19T14:06:03;5.65;;;1.20;;
46897;SDS011;32646;50.958;6.258;2023-11-19T14:08:30;7.05;;;1.05;;
46897;SDS011;32646;50.958;6.258;2023-11-19T14:10:56;6.72;;;1.20;;
46897;SDS011;32646;50.958;6.258;2023-11-19T14:13:23;6.75;;;1.30;;
46897;SDS011;32646;50.958;6.258;2023-11-19T14:15:50;8.00;;;1.42;;
46897;SDS011;32646;50.958;6.258;2023-11-19T14:18:18;10.73;;;1.40;;
46897;SDS011;32646;50.958;6.258;2023-11-19T14:20:44;7.05;;;1.25;;
46897;SDS011;32646;50.958;6.258;2023-11-19T14:23:11;8.80;;;1.85;;
46897;SDS011;32646;50.958;6.258;2023-11-19T14:25:38;8.80;;;1.60;;
46897;SDS011;32646;50.958;6.258;2023-11-19T14:28:04;8.90;;;1.65;;
46897;SDS011;32646;50.958;6.258;2023-11-19T14:30:32;13.75;;;2.03;;
46897;SDS011;32646;50.958;6.258;2023-11-19T14:32:59;6.15;;;1.65;;
46897;SDS011;32646;50.958;6.258;2023-11-19T14:35:25;15.95;;;2.47;;
46897;SDS011;32646;50.958;6.258;2023-11-19T14:37:52;7.55;;;1.67;;
46897;SDS011;32646;50.958;6.258;2023-11-19T14:40:19;9.50;;;1.70;;
46897;SDS011;32646;50.958;6.258;2023-11-19T14:42:45;4.97;;;1.30;;
46897;SDS011;32646;50.958;6.258;2023-11-19T14:45:12;9.55;;;2.13;;
46897;SDS011;32646;50.958;6.258;2023-11-19T14:47:39;5.45;;;1.70;;
46897;SDS011;32646;50.958;6.258;2023-11-19T14:50:06;12.25;;;1.67;;
46897;SDS011;32646;50.958;6.258;2023-11-19T14:52:34;10.77;;;2.28;;
46897;SDS011;32646;50.958;6.258;2023-11-19T14:55:01;11.18;;;1.90;;
46897;SDS011;32646;50.958;6.258;2023-11-19T14:57:28;6.70;;;1.33;;
46897;SDS011;32646;50.958;6.258;2023-11-19T14:59:55;12.07;;;2.28;;
46897;SDS011;32646;50.958;6.258;2023-11-19T15:02:21;11.13;;;2.22;;
46897;SDS011;32646;50.958;6.258;2023-11-19T15:04:48;6.80;;;1.88;;
46897;SDS011;32646;50.958;6.258;2023-11-19T15:07:15;9.45;;;1.60;;
46897;SDS011;32646;50.958;6.258;2023-11-19T15:09:41;9.20;;;1.50;;
46897;SDS011;32646;50.958;6.258;2023-11-19T15:12:08;15.40;;;1.85;;